createdAt,value
2023-10-20T00:00:43.822Z,11.10
2023-10-20T00:03:11.031Z,11.00
2023-10-20T00:05:38.666Z,11.00
2023-10-20T00:08:06.221Z,11.00
2023-10-20T00:10:40.709Z,11.10
2023-10-20T00:13:08.099Z,11.10
2023-10-20T00:15:36.121Z,11.10
2023-10-20T00:18:05.313Z,11.00
2023-10-20T00:20:32.401Z,11.00
2023-10-20T00:22:59.430Z,11.00
2023-10-20T00:25:26.468Z,11.00
2023-10-20T00:27:53.507Z,10.90
2023-10-20T00:30:20.652Z,10.90
2023-10-20T00:32:47.802Z,10.80
2023-10-20T00:35:15.447Z,10.80
2023-10-20T00:37:43.233Z,10.90
2023-10-20T00:40:11.712Z,10.80
2023-10-20T00:42:39.346Z,10.80
2023-10-20T00:45:08.262Z,10.90
2023-10-20T00:47:38.088Z,10.90
2023-10-20T00:50:06.349Z,10.90
2023-10-20T00:52:37.204Z,11.00
2023-10-20T00:55:08.450Z,10.90
2023-10-20T00:57:36.447Z,10.80
2023-10-20T01:00:05.490Z,10.80
2023-10-20T01:02:33.949Z,10.80
2023-10-20T01:05:01.168Z,10.80
2023-10-20T01:07:28.263Z,10.80
2023-10-20T01:10:01.049Z,10.80
2023-10-20T01:12:28.295Z,10.80
2023-10-20T01:14:55.260Z,10.80
2023-10-20T01:17:22.241Z,10.80
2023-10-20T01:19:49.240Z,10.90
2023-10-20T01:22:16.205Z,10.90
2023-10-20T01:24:43.235Z,11.00
2023-10-20T01:27:10.237Z,11.00
2023-10-20T01:29:37.356Z,11.00
2023-10-20T01:32:04.865Z,11.10
2023-10-20T01:34:32.647Z,11.10
2023-10-20T01:37:01.273Z,11.10
2023-10-20T01:39:28.229Z,11.20
2023-10-20T01:41:55.213Z,11.20
2023-10-20T01:44:22.442Z,11.20
2023-10-20T01:46:52.309Z,11.20
2023-10-20T01:49:19.412Z,11.20
2023-10-20T01:51:46.395Z,11.20
2023-10-20T01:54:13.612Z,11.20
2023-10-20T01:56:40.688Z,11.20
2023-10-20T01:59:07.682Z,11.20
2023-10-20T02:01:35.004Z,11.20
2023-10-20T02:04:02.395Z,11.10
2023-10-20T02:06:29.419Z,11.20
2023-10-20T02:08:56.507Z,11.20
2023-10-20T02:11:23.537Z,11.10
2023-10-20T02:13:50.574Z,11.10
2023-10-20T02:16:17.580Z,11.20
2023-10-20T02:18:45.363Z,11.10
2023-10-20T02:21:12.374Z,11.00
2023-10-20T02:23:39.833Z,11.00
2023-10-20T02:26:09.061Z,11.00
2023-10-20T02:28:37.000Z,11.00
2023-10-20T02:31:13.345Z,11.00
2023-10-20T02:33:40.538Z,11.10
2023-10-20T02:36:07.619Z,11.10
2023-10-20T02:38:34.740Z,11.10
2023-10-20T02:41:02.236Z,11.00
2023-10-20T02:43:29.688Z,11.00
2023-10-20T02:45:57.428Z,11.00
2023-10-20T02:48:25.502Z,11.00
2023-10-20T02:50:52.819Z,10.90
2023-10-20T02:53:19.658Z,10.90
2023-10-20T02:55:48.667Z,10.90
2023-10-20T02:58:17.175Z,10.80
2023-10-20T03:00:45.631Z,10.90
2023-10-20T03:03:14.800Z,10.90
2023-10-20T03:05:44.658Z,10.80
2023-10-20T03:08:12.473Z,10.90
2023-10-20T03:10:39.618Z,10.90
2023-10-20T03:13:06.442Z,11.00
2023-10-20T03:15:33.465Z,10.90
2023-10-20T03:18:00.678Z,11.00
2023-10-20T03:20:31.427Z,11.00
2023-10-20T03:22:59.594Z,11.00
2023-10-20T03:25:27.411Z,11.00
2023-10-20T03:27:54.245Z,11.00
2023-10-20T03:30:21.042Z,11.00
2023-10-20T03:32:49.388Z,11.00
2023-10-20T03:35:17.366Z,11.00
2023-10-20T03:37:44.386Z,11.00
2023-10-20T03:40:17.358Z,11.00
2023-10-20T03:42:44.950Z,10.90
2023-10-20T03:45:14.912Z,11.00
2023-10-20T03:47:42.024Z,11.00
2023-10-20T03:50:17.340Z,11.00
2023-10-20T03:52:47.327Z,11.00
2023-10-20T03:55:15.123Z,11.10
2023-10-20T03:57:42.823Z,11.10
2023-10-20T04:00:22.906Z,11.00
2023-10-20T04:02:50.177Z,11.00
2023-10-20T04:05:17.548Z,10.90
2023-10-20T04:07:44.531Z,10.90
2023-10-20T04:10:11.339Z,10.90
2023-10-20T04:12:40.357Z,10.90
2023-10-20T04:15:10.358Z,10.90
2023-10-20T04:17:40.019Z,10.90
2023-10-20T04:20:16.864Z,10.90
2023-10-20T04:22:44.587Z,10.90
2023-10-20T04:25:13.852Z,11.00
2023-10-20T04:27:50.871Z,11.00
2023-10-20T04:30:37.523Z,11.00
2023-10-20T04:33:24.590Z,10.90
2023-10-20T04:36:10.401Z,10.90
2023-10-20T04:38:56.003Z,10.90
2023-10-20T04:41:41.868Z,10.80
2023-10-20T04:44:17.544Z,10.70
2023-10-20T04:47:06.675Z,10.80
2023-10-20T04:49:52.091Z,10.70
2023-10-20T04:52:37.614Z,10.70
2023-10-20T04:55:13.529Z,10.70
2023-10-20T04:57:59.303Z,10.70
2023-10-20T05:00:26.926Z,10.70
2023-10-20T05:02:59.861Z,10.80
2023-10-20T05:05:27.162Z,10.80
2023-10-20T05:07:56.837Z,10.80
2023-10-20T05:10:24.993Z,10.90
2023-10-20T05:12:52.169Z,10.90
2023-10-20T05:15:19.130Z,10.90
2023-10-20T05:17:47.556Z,10.90
2023-10-20T05:20:14.523Z,10.90
2023-10-20T05:22:42.572Z,10.90
2023-10-20T05:25:12.670Z,10.90
2023-10-20T05:27:40.036Z,10.90
2023-10-20T05:30:10.276Z,10.90
2023-10-20T05:32:38.892Z,10.80
2023-10-20T05:35:08.450Z,10.80
2023-10-20T05:37:35.436Z,10.70
2023-10-20T05:40:04.448Z,10.70
2023-10-20T05:42:32.133Z,10.70
2023-10-20T05:45:11.071Z,10.70
2023-10-20T05:47:39.376Z,10.70
2023-10-20T05:50:07.596Z,10.70
2023-10-20T05:52:36.823Z,10.70
2023-10-20T05:55:04.621Z,10.70
2023-10-20T05:57:31.945Z,10.70
2023-10-20T06:00:00.635Z,10.70
2023-10-20T06:02:29.009Z,10.80
2023-10-20T06:04:56.149Z,10.70
2023-10-20T06:07:23.098Z,10.70
2023-10-20T06:09:50.742Z,10.60
2023-10-20T06:12:18.003Z,10.60
2023-10-20T06:14:45.181Z,10.60
2023-10-20T06:17:12.145Z,10.60
2023-10-20T06:19:38.985Z,10.50
2023-10-20T06:22:06.661Z,10.50
2023-10-20T06:24:34.462Z,10.60
2023-10-20T06:27:03.808Z,10.60
2023-10-20T06:29:34.599Z,10.50
2023-10-20T06:32:07.384Z,10.60
2023-10-20T06:34:36.251Z,10.60
2023-10-20T06:37:23.301Z,10.60
2023-10-20T06:39:50.006Z,10.60
2023-10-20T06:42:17.837Z,10.60
2023-10-20T06:44:45.330Z,10.70
2023-10-20T06:47:12.407Z,10.70
2023-10-20T06:49:39.264Z,10.80
2023-10-20T06:52:06.025Z,10.80
2023-10-20T06:54:33.004Z,10.90
2023-10-20T06:57:00.581Z,10.90
2023-10-20T06:59:27.515Z,10.90
2023-10-20T07:02:01.051Z,11.00
2023-10-20T07:04:28.756Z,10.90
2023-10-20T07:06:58.228Z,10.80
2023-10-20T07:09:25.352Z,10.80
2023-10-20T07:11:53.365Z,10.90
2023-10-20T07:14:20.279Z,10.90
2023-10-20T07:16:47.098Z,11.00
2023-10-20T07:19:13.834Z,11.00
2023-10-20T07:21:40.654Z,11.00
2023-10-20T07:24:07.986Z,11.10
2023-10-20T07:26:35.817Z,11.10
2023-10-20T07:29:03.267Z,11.20
2023-10-20T07:31:30.020Z,11.20
2023-10-20T07:33:57.365Z,11.20
2023-10-20T07:36:24.254Z,11.30
2023-10-20T07:38:51.206Z,11.40
2023-10-20T07:41:18.463Z,11.40
2023-10-20T07:43:45.326Z,11.50
2023-10-20T07:46:18.927Z,11.50
2023-10-20T07:48:46.338Z,11.60
2023-10-20T07:51:13.265Z,11.50
2023-10-20T07:53:40.157Z,11.60
2023-10-20T07:56:06.969Z,11.70
2023-10-20T07:58:34.360Z,11.70
2023-10-20T08:01:01.968Z,11.80
2023-10-20T08:03:29.083Z,11.90
2023-10-20T08:05:56.533Z,12.00
2023-10-20T08:08:23.477Z,12.00
2023-10-20T08:10:50.928Z,12.10
2023-10-20T08:13:18.925Z,12.10
2023-10-20T08:15:45.850Z,12.20
2023-10-20T08:18:12.773Z,12.20
2023-10-20T08:20:40.410Z,12.30
2023-10-20T08:23:07.287Z,12.40
2023-10-20T08:25:38.132Z,12.40
2023-10-20T08:28:05.996Z,12.60
2023-10-20T08:30:32.803Z,12.70
2023-10-20T08:33:00.514Z,12.80
2023-10-20T08:35:27.762Z,13.00
2023-10-20T08:37:54.632Z,13.30
2023-10-20T08:40:21.468Z,13.50
2023-10-20T08:42:48.481Z,13.70
2023-10-20T08:45:16.917Z,13.90
2023-10-20T08:47:44.516Z,14.10
2023-10-20T08:50:17.244Z,14.10
2023-10-20T08:52:45.903Z,14.20
2023-10-20T08:55:14.461Z,14.30
2023-10-20T08:57:41.339Z,14.30
2023-10-20T09:00:09.260Z,14.30
2023-10-20T09:02:39.523Z,14.40
2023-10-20T09:05:07.970Z,14.50
2023-10-20T09:07:35.165Z,14.50
2023-10-20T09:10:02.410Z,14.60
2023-10-20T09:12:33.363Z,14.70
2023-10-20T09:15:00.253Z,14.80
2023-10-20T09:17:28.108Z,14.90
2023-10-20T09:20:06.069Z,15.00
2023-10-20T09:22:32.990Z,15.20
2023-10-20T09:25:00.269Z,15.30
2023-10-20T09:27:27.158Z,15.50
2023-10-20T09:29:55.434Z,15.70
2023-10-20T09:32:22.233Z,16.40
2023-10-20T09:34:50.113Z,16.90
2023-10-20T09:37:19.883Z,17.10
2023-10-20T09:39:47.472Z,17.20
2023-10-20T09:42:16.207Z,17.40
2023-10-20T09:44:56.948Z,17.50
2023-10-20T09:47:27.154Z,17.60
2023-10-20T09:49:54.552Z,17.30
2023-10-20T09:52:21.379Z,17.20
2023-10-20T09:54:51.377Z,17.00
2023-10-20T09:57:20.727Z,16.90
2023-10-20T09:59:53.997Z,16.90
2023-10-20T10:02:29.063Z,17.00
2023-10-20T10:04:58.036Z,17.10
2023-10-20T10:07:34.543Z,17.20
2023-10-20T10:10:01.668Z,17.30
2023-10-20T10:12:29.788Z,17.30
2023-10-20T10:15:15.865Z,17.30
2023-10-20T10:17:52.884Z,17.20
2023-10-20T10:20:29.796Z,17.00
2023-10-20T10:23:07.701Z,17.00
2023-10-20T10:25:42.961Z,16.80
2023-10-20T10:28:16.246Z,16.70
2023-10-20T10:30:44.370Z,16.60
2023-10-20T10:33:14.650Z,16.50
2023-10-20T10:35:41.921Z,16.60
2023-10-20T10:38:24.953Z,16.60
2023-10-20T10:40:52.578Z,16.60
2023-10-20T10:43:20.910Z,16.50
2023-10-20T10:45:54.507Z,16.30
2023-10-20T10:48:26.049Z,16.00
2023-10-20T10:50:52.963Z,16.00
2023-10-20T10:53:20.193Z,15.90
2023-10-20T10:55:47.077Z,15.80
2023-10-20T10:58:14.956Z,15.70
2023-10-20T11:00:44.453Z,15.60
2023-10-20T11:03:12.682Z,15.50
2023-10-20T11:05:40.531Z,15.30
2023-10-20T11:08:09.149Z,15.20
2023-10-20T11:10:43.399Z,15.20
2023-10-20T11:13:21.178Z,15.20
2023-10-20T11:15:49.141Z,15.10
2023-10-20T11:18:18.112Z,15.10
2023-10-20T11:20:48.926Z,15.10
2023-10-20T11:23:20.421Z,15.20
2023-10-20T11:25:49.090Z,15.30
2023-10-20T11:28:15.848Z,15.40
2023-10-20T11:30:46.301Z,15.50
2023-10-20T11:33:15.967Z,15.50
2023-10-20T11:35:44.238Z,15.40
2023-10-20T11:38:11.029Z,15.30
2023-10-20T11:40:38.955Z,15.30
2023-10-20T11:43:05.795Z,15.30
2023-10-20T11:45:32.888Z,15.20
2023-10-20T11:47:59.967Z,15.20
2023-10-20T11:50:26.910Z,15.20
2023-10-20T11:52:53.800Z,15.20
2023-10-20T11:55:20.604Z,15.10
2023-10-20T11:57:47.397Z,15.10
2023-10-20T12:00:15.006Z,15.00
2023-10-20T12:02:43.021Z,15.00
2023-10-20T12:05:11.207Z,15.10
2023-10-20T12:07:38.367Z,15.20
2023-10-20T12:10:06.689Z,15.30
2023-10-20T12:12:34.647Z,15.30
2023-10-20T12:15:01.667Z,15.30
2023-10-20T12:17:28.941Z,15.30
2023-10-20T12:19:55.829Z,15.30
2023-10-20T12:22:22.564Z,15.30
2023-10-20T12:24:49.256Z,15.40
2023-10-20T12:27:15.986Z,15.40
2023-10-20T12:29:42.734Z,15.50
2023-10-20T12:32:13.637Z,15.20
2023-10-20T12:34:41.121Z,15.10
2023-10-20T12:37:07.856Z,15.20
2023-10-20T12:39:34.642Z,15.30
2023-10-20T12:42:04.512Z,15.40
2023-10-20T12:44:31.525Z,15.30
2023-10-20T12:46:58.418Z,15.40
2023-10-20T12:49:25.252Z,15.30
2023-10-20T12:51:52.082Z,15.20
2023-10-20T12:54:18.958Z,15.10
2023-10-20T12:56:45.761Z,15.00
2023-10-20T12:59:12.488Z,15.10
2023-10-20T13:01:39.359Z,15.00
2023-10-20T13:04:06.504Z,14.80
2023-10-20T13:06:42.571Z,14.50
2023-10-20T13:09:18.508Z,14.30
2023-10-20T13:11:45.336Z,14.20
2023-10-20T13:14:12.061Z,14.10
2023-10-20T13:16:40.341Z,14.00
2023-10-20T13:19:07.580Z,13.90
2023-10-20T13:21:34.294Z,14.00
2023-10-20T13:24:01.082Z,13.90
2023-10-20T13:26:27.847Z,13.80
2023-10-20T13:28:54.603Z,13.80
2023-10-20T13:31:24.264Z,13.80
2023-10-20T13:33:51.062Z,13.70
2023-10-20T13:36:19.531Z,13.70
2023-10-20T13:38:46.682Z,13.80
2023-10-20T13:41:13.470Z,13.70
2023-10-20T13:43:40.300Z,13.60
2023-10-20T13:46:07.115Z,13.60
2023-10-20T13:48:33.955Z,13.60
2023-10-20T13:51:00.932Z,13.50
2023-10-20T13:53:28.035Z,13.50
2023-10-20T13:55:55.363Z,13.50
2023-10-20T13:58:22.815Z,13.60
2023-10-20T14:00:52.171Z,13.50
2023-10-20T14:03:19.215Z,13.40
2023-10-20T14:05:56.059Z,13.40
2023-10-20T14:08:23.659Z,13.40
2023-10-20T14:10:50.642Z,13.30
2023-10-20T14:13:18.206Z,13.30
2023-10-20T14:15:45.167Z,13.30
2023-10-20T14:18:13.192Z,13.30
2023-10-20T14:20:40.851Z,13.40
2023-10-20T14:23:08.970Z,13.30
2023-10-20T14:25:36.546Z,13.40
2023-10-20T14:28:03.501Z,13.40
2023-10-20T14:30:30.281Z,13.40
2023-10-20T14:32:57.111Z,13.20
2023-10-20T14:35:23.977Z,13.20
2023-10-20T14:37:50.964Z,13.20
2023-10-20T14:40:17.867Z,13.10
2023-10-20T14:42:44.849Z,13.10
2023-10-20T14:45:12.678Z,13.10
2023-10-20T14:47:39.753Z,13.10
2023-10-20T14:50:07.664Z,13.20
2023-10-20T14:52:34.381Z,13.10
2023-10-20T14:55:01.110Z,13.10
2023-10-20T14:57:29.004Z,13.00
2023-10-20T14:59:56.155Z,12.90
2023-10-20T15:02:23.196Z,12.80
2023-10-20T15:04:50.025Z,12.70
2023-10-20T15:07:16.847Z,12.80
2023-10-20T15:09:43.969Z,12.70
2023-10-20T15:12:10.818Z,12.70
2023-10-20T15:14:37.670Z,12.70
2023-10-20T15:17:04.349Z,12.70
2023-10-20T15:19:30.997Z,12.60
2023-10-20T15:21:58.236Z,12.60
2023-10-20T15:24:24.913Z,12.50
2023-10-20T15:26:51.740Z,12.50
2023-10-20T15:29:18.904Z,12.50
2023-10-20T15:31:45.798Z,12.50
2023-10-20T15:34:12.652Z,12.60
2023-10-20T15:36:49.427Z,12.60
2023-10-20T15:39:16.706Z,12.50
2023-10-20T15:41:43.462Z,12.40
2023-10-20T15:44:10.383Z,12.30
2023-10-20T15:46:37.280Z,12.30
2023-10-20T15:49:05.152Z,12.30
2023-10-20T15:51:31.799Z,12.30
2023-10-20T15:53:58.514Z,12.20
2023-10-20T15:56:25.770Z,12.30
2023-10-20T15:58:52.525Z,12.30
2023-10-20T16:01:19.238Z,12.30
2023-10-20T16:03:47.127Z,12.30
2023-10-20T16:06:13.847Z,12.30
2023-10-20T16:08:40.568Z,12.30
2023-10-20T16:11:07.259Z,12.30
2023-10-20T16:13:34.078Z,12.20
2023-10-20T16:16:00.811Z,12.20
2023-10-20T16:18:27.615Z,12.10
2023-10-20T16:20:54.425Z,12.10
2023-10-20T16:23:22.673Z,12.20
2023-10-20T16:25:49.686Z,12.30
2023-10-20T16:28:16.378Z,12.30
2023-10-20T16:30:43.086Z,12.20
2023-10-20T16:33:09.886Z,12.20
2023-10-20T16:35:36.685Z,12.10
2023-10-20T16:38:03.352Z,12.10
2023-10-20T16:40:31.606Z,12.10
2023-10-20T16:42:58.381Z,12.10
2023-10-20T16:45:25.074Z,12.10
2023-10-20T16:47:52.476Z,12.20
2023-10-20T16:50:19.382Z,12.20
2023-10-20T16:52:46.007Z,12.20
2023-10-20T16:55:12.700Z,12.20
2023-10-20T16:57:39.359Z,12.10
2023-10-20T17:00:07.151Z,12.00
2023-10-20T17:02:34.156Z,12.10
2023-10-20T17:05:00.857Z,12.10
2023-10-20T17:07:27.536Z,12.10
2023-10-20T17:09:54.260Z,12.10
2023-10-20T17:12:21.481Z,12.10
2023-10-20T17:14:48.423Z,12.10
2023-10-20T17:17:15.556Z,12.10
2023-10-20T17:19:42.208Z,12.10
2023-10-20T17:22:08.878Z,12.10
2023-10-20T17:24:35.530Z,12.10
2023-10-20T17:27:04.128Z,12.10
2023-10-20T17:29:30.917Z,12.00
2023-10-20T17:31:57.575Z,11.80
2023-10-20T17:34:24.281Z,11.60
2023-10-20T17:36:51.514Z,11.60
2023-10-20T17:39:19.476Z,11.60
2023-10-20T17:41:48.925Z,11.50
2023-10-20T17:44:15.953Z,11.50
2023-10-20T17:46:42.618Z,11.40
2023-10-20T17:49:10.188Z,11.50
2023-10-20T17:51:37.136Z,11.50
2023-10-20T17:54:04.011Z,11.60
2023-10-20T17:56:30.840Z,11.60
2023-10-20T17:58:57.522Z,11.70
2023-10-20T18:01:24.277Z,11.70
2023-10-20T18:03:51.063Z,11.80
2023-10-20T18:06:21.910Z,11.80
2023-10-20T18:08:50.799Z,11.90
2023-10-20T18:11:20.692Z,11.90
2023-10-20T18:13:48.253Z,11.90
2023-10-20T18:16:16.010Z,11.80
2023-10-20T18:18:45.308Z,11.80
2023-10-20T18:21:15.587Z,11.80
2023-10-20T18:23:42.241Z,11.90
2023-10-20T18:26:09.145Z,11.90
2023-10-20T18:28:35.807Z,11.80
2023-10-20T18:31:16.199Z,11.80
2023-10-20T18:33:43.239Z,11.90
2023-10-20T18:36:10.127Z,11.80
2023-10-20T18:38:36.855Z,11.90
2023-10-20T18:41:04.236Z,11.90
2023-10-20T18:43:31.208Z,11.90
2023-10-20T18:46:00.968Z,11.90
2023-10-20T18:48:28.500Z,11.90
2023-10-20T18:51:03.877Z,11.90
2023-10-20T18:53:31.584Z,11.90
2023-10-20T18:55:58.356Z,11.80
2023-10-20T18:58:25.424Z,11.80
2023-10-20T19:00:55.340Z,11.80
2023-10-20T19:03:22.246Z,11.80
2023-10-20T19:05:49.693Z,11.80
2023-10-20T19:08:16.943Z,11.70
2023-10-20T19:10:43.728Z,11.70
2023-10-20T19:13:10.698Z,11.70
2023-10-20T19:15:37.507Z,11.80
2023-10-20T19:18:05.020Z,11.80
2023-10-20T19:20:31.782Z,11.80
2023-10-20T19:22:58.651Z,11.80
2023-10-20T19:25:25.297Z,11.80
2023-10-20T19:27:51.938Z,11.80
2023-10-20T19:30:18.843Z,11.80
2023-10-20T19:32:45.677Z,11.80
2023-10-20T19:35:12.612Z,11.80
2023-10-20T19:37:39.256Z,11.70
2023-10-20T19:40:07.002Z,11.70
2023-10-20T19:42:33.786Z,11.60
2023-10-20T19:45:02.191Z,11.60
2023-10-20T19:47:29.134Z,11.60
2023-10-20T19:49:55.831Z,11.50
2023-10-20T19:52:22.527Z,11.50
2023-10-20T19:54:49.392Z,11.40
2023-10-20T19:57:16.054Z,11.40
2023-10-20T19:59:42.811Z,11.30
2023-10-20T20:02:09.570Z,11.30
2023-10-20T20:04:36.429Z,11.30
2023-10-20T20:07:03.171Z,11.30
2023-10-20T20:09:29.806Z,11.20
2023-10-20T20:11:57.099Z,11.20
2023-10-20T20:14:23.830Z,11.20
2023-10-20T20:16:50.585Z,11.20
2023-10-20T20:19:17.304Z,11.20
2023-10-20T20:21:43.967Z,11.20
2023-10-20T20:24:10.730Z,11.10
2023-10-20T20:26:37.491Z,11.10
2023-10-20T20:29:05.512Z,11.10
2023-10-20T20:31:32.405Z,11.10
2023-10-20T20:33:59.303Z,11.00
2023-10-20T20:36:25.970Z,11.00
2023-10-20T20:38:52.963Z,11.00
2023-10-20T20:41:19.788Z,10.90
2023-10-20T20:43:46.645Z,10.90
2023-10-20T20:46:13.433Z,10.80
2023-10-20T20:48:40.257Z,10.70
2023-10-20T20:51:11.026Z,10.30
2023-10-20T20:53:38.038Z,10.00
2023-10-20T20:56:05.303Z,9.90
2023-10-20T20:58:32.326Z,9.90
2023-10-20T21:01:01.246Z,9.90
2023-10-20T21:03:28.193Z,10.00
2023-10-20T21:05:59.128Z,10.10
2023-10-20T21:08:26.040Z,10.10
2023-10-20T21:10:52.688Z,10.20
2023-10-20T21:13:19.348Z,10.00
2023-10-20T21:15:46.111Z,10.00
2023-10-20T21:18:12.871Z,10.00
2023-10-20T21:20:40.147Z,9.90
2023-10-20T21:23:06.981Z,9.90
2023-10-20T21:25:37.931Z,9.90
2023-10-20T21:28:05.288Z,9.80
2023-10-20T21:30:35.414Z,9.80
2023-10-20T21:33:02.351Z,9.70
2023-10-20T21:35:29.388Z,9.60
2023-10-20T21:37:56.027Z,9.60
2023-10-20T21:40:22.662Z,9.60
2023-10-20T21:42:49.289Z,9.60
2023-10-20T21:45:16.046Z,9.50
2023-10-20T21:47:42.826Z,9.50
2023-10-20T21:50:09.681Z,9.50
2023-10-20T21:52:36.342Z,9.50
2023-10-20T21:55:03.080Z,9.40
2023-10-20T21:57:29.729Z,9.50
2023-10-20T21:59:56.569Z,9.50
2023-10-20T22:02:23.367Z,9.40
2023-10-20T22:04:53.853Z,9.10
2023-10-20T22:07:20.518Z,8.90
2023-10-20T22:09:53.791Z,8.80
2023-10-20T22:12:21.410Z,8.70
2023-10-20T22:14:48.138Z,8.70
2023-10-20T22:17:14.841Z,8.70
2023-10-20T22:19:41.487Z,8.70
2023-10-20T22:22:08.725Z,8.60
2023-10-20T22:24:35.429Z,8.60
2023-10-20T22:27:02.119Z,8.50
2023-10-20T22:29:28.797Z,8.50
2023-10-20T22:31:55.465Z,8.50
2023-10-20T22:34:22.109Z,8.60
2023-10-20T22:36:48.926Z,8.60
2023-10-20T22:39:16.040Z,8.60
2023-10-20T22:41:42.851Z,8.50
2023-10-20T22:44:09.685Z,8.50
2023-10-20T22:46:36.404Z,8.30
2023-10-20T22:49:03.289Z,8.10
2023-10-20T22:51:29.972Z,7.90
2023-10-20T22:53:56.665Z,7.80
2023-10-20T22:56:23.910Z,7.70
2023-10-20T22:58:50.637Z,7.60
2023-10-20T23:01:17.346Z,7.60
2023-10-20T23:03:44.305Z,7.70
2023-10-20T23:06:11.120Z,7.70
2023-10-20T23:08:37.902Z,7.80
2023-10-20T23:11:04.969Z,7.70
2023-10-20T23:13:31.684Z,7.50
2023-10-20T23:15:58.352Z,7.50
2023-10-20T23:18:25.234Z,7.60
2023-10-20T23:20:55.611Z,7.60
2023-10-20T23:23:22.462Z,8.20
2023-10-20T23:25:49.145Z,7.70
2023-10-20T23:28:15.807Z,7.50
2023-10-20T23:30:42.484Z,7.60
2023-10-20T23:33:09.256Z,7.60
2023-10-20T23:35:36.058Z,7.60
2023-10-20T23:38:02.742Z,7.60
2023-10-20T23:40:29.376Z,7.70
2023-10-20T23:42:56.021Z,7.60
2023-10-20T23:45:22.683Z,7.70
2023-10-20T23:47:50.077Z,7.70
2023-10-20T23:50:16.763Z,7.70
2023-10-20T23:52:43.431Z,7.70
2023-10-20T23:55:10.074Z,7.80
2023-10-20T23:57:36.744Z,7.70
